createdAt,value
2023-01-13T00:00:30.507Z,99928.78
2023-01-13T00:02:58.255Z,99914.03
2023-01-13T00:05:27.008Z,99916.81
2023-01-13T00:07:55.124Z,99917.13
2023-01-13T00:10:24.542Z,99914.88
2023-01-13T00:12:53.525Z,99913.22
2023-01-13T00:15:21.516Z,99909.13
2023-01-13T00:17:49.794Z,99921.44
2023-01-13T00:20:18.106Z,99908.25
2023-01-13T00:22:45.937Z,99910.34
2023-01-13T00:25:13.939Z,99910.88
2023-01-13T00:27:43.052Z,99907.66
2023-01-13T00:30:12.012Z,99902.16
2023-01-13T00:32:40.095Z,99897.84
2023-01-13T00:35:08.861Z,99903.28
2023-01-13T00:37:38.380Z,99903.16
2023-01-13T00:40:07.690Z,99894.19
2023-01-13T00:42:52.676Z,99887.19
2023-01-13T00:45:22.102Z,99895.31
2023-01-13T00:47:49.970Z,99895.19
2023-01-13T00:50:18.130Z,99896.59
2023-01-13T00:52:46.077Z,99883.28
2023-01-13T00:55:14.169Z,99882.59
2023-01-13T00:57:42.292Z,99878.69
2023-01-13T01:00:11.562Z,99870.13
2023-01-13T01:02:40.948Z,99863.84
2023-01-13T01:05:09.830Z,99865.50
2023-01-13T01:07:38.010Z,99858.09
2023-01-13T01:10:06.994Z,99862.00
2023-01-13T01:12:35.972Z,99862.97
2023-01-13T01:15:06.225Z,99863.50
2023-01-13T01:17:34.236Z,99869.22
2023-01-13T01:20:03.750Z,99867.81
2023-01-13T01:22:31.663Z,99867.53
2023-01-13T01:24:59.899Z,99866.09
2023-01-13T01:27:27.705Z,99861.31
2023-01-13T01:29:55.808Z,99877.03
2023-01-13T01:32:23.735Z,99857.94
2023-01-13T01:34:52.136Z,99852.91
2023-01-13T01:37:21.617Z,99846.47
2023-01-13T01:39:49.362Z,99848.53
2023-01-13T01:42:36.007Z,99848.66
2023-01-13T01:45:14.672Z,99841.78
2023-01-13T01:47:43.999Z,99841.38
2023-01-13T01:50:12.603Z,99829.50
2023-01-13T01:52:45.169Z,99825.25
2023-01-13T01:55:16.716Z,99828.31
2023-01-13T01:57:48.893Z,99819.09
2023-01-13T02:00:16.991Z,99825.66
2023-01-13T02:02:47.062Z,99829.63
2023-01-13T02:05:15.196Z,99816.44
2023-01-13T02:07:46.985Z,99819.38
2023-01-13T02:10:20.302Z,99820.94
2023-01-13T02:12:49.177Z,99824.59
2023-01-13T02:15:19.667Z,99820.69
2023-01-13T02:18:03.582Z,99817.09
2023-01-13T02:20:49.195Z,99812.72
2023-01-13T02:24:21.992Z,99802.78
2023-01-13T02:27:29.115Z,99813.91
2023-01-13T02:30:31.235Z,99815.25
2023-01-13T02:33:14.670Z,99811.63
2023-01-13T02:35:50.645Z,99812.66
2023-01-13T02:38:23.044Z,99807.59
2023-01-13T02:40:58.653Z,99802.97
2023-01-13T02:43:51.094Z,99783.50
2023-01-13T02:46:26.385Z,99792.19
2023-01-13T02:48:58.674Z,99791.25
2023-01-13T02:51:29.511Z,99793.63
2023-01-13T02:54:01.902Z,99789.88
2023-01-13T02:56:32.775Z,99786.50
2023-01-13T02:59:01.915Z,99780.47
2023-01-13T03:01:31.532Z,99786.88
2023-01-13T03:03:59.831Z,99787.72
2023-01-13T03:06:40.366Z,99781.69
2023-01-13T03:09:14.241Z,99775.53
2023-01-13T03:11:52.435Z,99767.56
2023-01-13T03:14:31.577Z,99765.47
2023-01-13T03:17:18.893Z,99767.34
2023-01-13T03:19:58.647Z,99767.59
2023-01-13T03:22:33.621Z,99747.16
2023-01-13T03:25:08.609Z,99757.53
2023-01-13T03:27:43.922Z,99758.13
2023-01-13T03:30:20.012Z,99747.03
2023-01-13T03:32:53.301Z,99750.84
2023-01-13T03:35:25.944Z,99738.78
2023-01-13T03:38:00.353Z,99743.25
2023-01-13T03:40:33.669Z,99748.00
2023-01-13T03:43:23.825Z,99733.00
2023-01-13T03:45:56.352Z,99730.94
2023-01-13T03:48:28.009Z,99734.44
2023-01-13T03:51:01.057Z,99721.69
2023-01-13T03:53:32.611Z,99718.19
2023-01-13T03:56:08.618Z,99720.88
2023-01-13T03:58:41.335Z,99725.19
2023-01-13T04:01:16.275Z,99734.88
2023-01-13T04:03:55.391Z,99727.97
2023-01-13T04:06:32.689Z,99709.22
2023-01-13T04:09:09.827Z,99717.78
2023-01-13T04:11:43.902Z,99720.69
2023-01-13T04:14:17.847Z,99705.19
2023-01-13T04:16:46.039Z,99708.81
2023-01-13T04:19:15.247Z,99708.25
2023-01-13T04:21:43.387Z,99705.19
2023-01-13T04:24:11.242Z,99706.16
2023-01-13T04:26:39.328Z,99700.44
2023-01-13T04:29:07.405Z,99713.16
2023-01-13T04:31:35.515Z,99712.03
2023-01-13T04:34:03.624Z,99711.47
2023-01-13T04:36:32.712Z,99716.28
2023-01-13T04:39:00.837Z,99698.47
2023-01-13T04:41:48.993Z,99699.44
2023-01-13T04:44:17.089Z,99693.44
2023-01-13T04:46:45.181Z,99699.59
2023-01-13T04:49:13.313Z,99699.06
2023-01-13T04:51:42.438Z,99694.13
2023-01-13T04:54:10.910Z,99690.91
2023-01-13T04:56:39.621Z,99692.16
2023-01-13T04:59:07.745Z,99693.16
2023-01-13T05:01:35.759Z,99683.78
2023-01-13T05:04:03.903Z,99686.28
2023-01-13T05:06:32.198Z,99689.25
2023-01-13T05:09:01.415Z,99683.91
2023-01-13T05:11:47.181Z,99683.63
2023-01-13T05:14:32.304Z,99669.34
2023-01-13T05:17:03.326Z,99674.09
2023-01-13T05:19:33.640Z,99678.72
2023-01-13T05:22:20.577Z,99675.34
2023-01-13T05:25:07.487Z,99669.78
2023-01-13T05:27:35.677Z,99665.69
2023-01-13T05:30:03.636Z,99668.34
2023-01-13T05:32:31.520Z,99670.91
2023-01-13T05:34:59.351Z,99670.66
2023-01-13T05:37:27.936Z,99668.13
2023-01-13T05:40:14.693Z,99670.38
2023-01-13T05:43:00.196Z,99682.84
2023-01-13T05:45:28.113Z,99680.31
2023-01-13T05:47:55.945Z,99686.63
2023-01-13T05:50:23.924Z,99686.47
2023-01-13T05:52:51.832Z,99689.69
2023-01-13T05:55:21.115Z,99707.38
2023-01-13T05:57:48.976Z,99699.81
2023-01-13T06:00:18.232Z,99693.03
2023-01-13T06:02:46.166Z,99692.88
2023-01-13T06:05:14.156Z,99705.19
2023-01-13T06:07:42.093Z,99703.19
2023-01-13T06:10:11.369Z,99707.94
2023-01-13T06:12:40.657Z,99719.53
2023-01-13T06:15:09.664Z,99723.31
2023-01-13T06:17:37.462Z,99728.19
2023-01-13T06:20:08.318Z,99731.41
2023-01-13T06:22:40.010Z,99752.94
2023-01-13T06:25:12.738Z,99757.31
2023-01-13T06:27:42.294Z,99794.63
2023-01-13T06:30:11.455Z,99822.00
2023-01-13T06:32:42.947Z,99812.16
2023-01-13T06:35:14.925Z,99816.56
2023-01-13T06:37:45.274Z,99797.47
2023-01-13T06:40:15.262Z,99802.00
2023-01-13T06:43:02.227Z,99815.28
2023-01-13T06:45:31.859Z,99817.75
2023-01-13T06:48:00.777Z,99818.50
2023-01-13T06:50:29.139Z,99811.25
2023-01-13T06:52:56.884Z,99801.22
2023-01-13T06:55:24.575Z,99798.22
2023-01-13T06:57:55.261Z,99803.91
2023-01-13T07:00:25.374Z,99800.66
2023-01-13T07:02:53.327Z,99803.59
2023-01-13T07:05:21.898Z,99806.59
2023-01-13T07:07:49.728Z,99810.25
2023-01-13T07:10:22.612Z,99806.75
2023-01-13T07:13:08.341Z,99814.84
2023-01-13T07:15:37.510Z,99821.22
2023-01-13T07:18:05.723Z,99824.72
2023-01-13T07:20:33.894Z,99814.22
2023-01-13T07:23:01.812Z,99813.25
2023-01-13T07:25:29.950Z,99804.84
2023-01-13T07:27:59.446Z,99827.91
2023-01-13T07:30:27.564Z,99826.56
2023-01-13T07:32:57.350Z,99828.50
2023-01-13T07:35:25.201Z,99821.25
2023-01-13T07:37:53.159Z,99805.84
2023-01-13T07:40:21.421Z,99829.59
2023-01-13T07:43:06.807Z,99822.13
2023-01-13T07:45:34.715Z,99821.63
2023-01-13T07:48:04.491Z,99796.28
2023-01-13T07:50:32.704Z,99753.09
2023-01-13T07:53:00.453Z,99765.91
2023-01-13T07:55:28.603Z,99786.66
2023-01-13T07:57:56.401Z,99807.31
2023-01-13T08:00:24.946Z,99833.22
2023-01-13T08:02:52.825Z,99865.69
2023-01-13T08:05:23.314Z,99879.31
2023-01-13T08:07:51.112Z,99881.72
2023-01-13T08:10:18.830Z,99884.25
2023-01-13T08:13:04.433Z,99883.88
2023-01-13T08:15:32.857Z,99887.50
2023-01-13T08:18:00.815Z,99884.03
2023-01-13T08:20:30.008Z,99891.72
2023-01-13T08:22:58.185Z,99890.16
2023-01-13T08:25:27.142Z,99905.09
2023-01-13T08:27:55.459Z,99922.00
2023-01-13T08:30:23.612Z,99910.41
2023-01-13T08:32:52.096Z,99923.44
2023-01-13T08:35:20.170Z,99930.94
2023-01-13T08:37:50.263Z,99926.47
2023-01-13T08:40:20.822Z,99927.31
2023-01-13T08:42:48.942Z,99934.31
2023-01-13T08:45:16.966Z,99933.34
2023-01-13T08:47:44.712Z,99942.88
2023-01-13T08:50:13.244Z,99944.56
2023-01-13T08:52:41.448Z,99948.72
2023-01-13T08:55:11.552Z,99938.81
2023-01-13T08:57:39.683Z,99930.72
2023-01-13T09:00:09.870Z,99918.06
2023-01-13T09:02:38.691Z,99933.88
2023-01-13T09:05:07.501Z,99935.19
2023-01-13T09:07:36.476Z,99939.19
2023-01-13T09:10:04.878Z,99947.50
2023-01-13T09:12:51.860Z,99947.38
2023-01-13T09:15:20.182Z,99962.81
2023-01-13T09:17:48.181Z,99953.97
2023-01-13T09:20:16.147Z,99962.66
2023-01-13T09:22:44.302Z,99966.66
2023-01-13T09:25:12.778Z,99973.91
2023-01-13T09:27:42.040Z,99986.56
2023-01-13T09:30:11.291Z,99991.16
2023-01-13T09:32:39.503Z,99981.25
2023-01-13T09:35:07.628Z,99992.50
2023-01-13T09:37:37.313Z,99984.16
2023-01-13T09:40:07.885Z,99978.50
2023-01-13T09:43:03.907Z,99995.88
2023-01-13T09:45:36.538Z,100003.09
2023-01-13T09:48:12.891Z,100024.00
2023-01-13T09:50:52.899Z,100021.06
2023-01-13T09:53:24.052Z,100028.22
2023-01-13T09:55:53.034Z,100026.28
2023-01-13T09:58:22.444Z,100028.81
2023-01-13T10:01:01.348Z,100034.97
2023-01-13T10:03:32.599Z,100028.31
2023-01-13T10:06:04.704Z,100017.19
2023-01-13T10:08:34.822Z,100026.72
2023-01-13T10:11:31.585Z,100012.69
2023-01-13T10:14:02.461Z,100008.22
2023-01-13T10:16:42.453Z,100006.28
2023-01-13T10:19:19.013Z,100023.56
2023-01-13T10:22:02.309Z,100007.06
2023-01-13T10:24:51.394Z,100008.19
2023-01-13T10:27:30.489Z,100013.34
2023-01-13T10:29:59.835Z,100020.34
2023-01-13T10:32:27.744Z,100017.69
2023-01-13T10:34:57.932Z,100021.28
2023-01-13T10:37:28.502Z,100028.94
2023-01-13T10:39:59.090Z,100024.34
2023-01-13T10:42:26.964Z,100028.22
2023-01-13T10:44:56.851Z,100022.41
2023-01-13T10:47:28.103Z,100033.16
2023-01-13T10:50:22.323Z,100025.06
2023-01-13T10:53:01.879Z,100035.09
2023-01-13T10:55:33.239Z,100019.03
2023-01-13T10:58:13.559Z,100019.84
2023-01-13T11:00:41.748Z,100011.75
2023-01-13T11:03:19.402Z,100019.03
2023-01-13T11:05:53.042Z,100016.59
2023-01-13T11:08:23.310Z,100023.13
2023-01-13T11:10:54.038Z,100026.38
2023-01-13T11:13:29.311Z,100029.94
2023-01-13T11:16:03.320Z,100031.63
2023-01-13T11:18:43.601Z,100027.63
2023-01-13T11:21:22.440Z,100035.09
2023-01-13T11:23:57.906Z,100029.84
2023-01-13T11:26:34.593Z,100028.06
2023-01-13T11:29:12.288Z,100029.22
2023-01-13T11:31:47.323Z,100025.91
2023-01-13T11:34:27.984Z,100027.66
2023-01-13T11:36:59.239Z,100049.16
2023-01-13T11:39:31.114Z,100041.16
2023-01-13T11:42:21.134Z,100054.34
2023-01-13T11:44:56.109Z,100057.38
2023-01-13T11:47:26.479Z,100050.94
2023-01-13T11:49:56.480Z,100051.53
2023-01-13T11:52:33.501Z,100046.72
2023-01-13T11:55:22.671Z,100056.09
2023-01-13T11:58:03.060Z,100047.38
2023-01-13T12:01:06.506Z,100052.88
2023-01-13T12:03:36.792Z,100053.63
2023-01-13T12:06:18.455Z,100047.13
2023-01-13T12:09:11.997Z,100058.19
2023-01-13T12:12:08.524Z,100049.25
2023-01-13T12:14:44.609Z,100052.81
2023-01-13T12:17:21.507Z,100055.38
2023-01-13T12:19:51.748Z,100050.56
2023-01-13T12:22:25.188Z,100048.59
2023-01-13T12:24:59.169Z,100048.41
2023-01-13T12:27:40.193Z,100036.41
2023-01-13T12:30:23.316Z,100038.72
2023-01-13T12:32:54.692Z,100037.69
2023-01-13T12:35:33.783Z,100034.44
2023-01-13T12:38:08.899Z,100035.44
2023-01-13T12:40:51.536Z,100020.75
2023-01-13T12:43:39.376Z,100029.50
2023-01-13T12:46:36.324Z,100034.59
2023-01-13T12:49:08.319Z,100032.09
2023-01-13T12:51:38.117Z,100017.31
2023-01-13T12:54:53.220Z,100021.78
2023-01-13T12:57:23.226Z,100014.88
2023-01-13T13:00:17.373Z,100011.97
2023-01-13T13:03:29.559Z,100007.56
2023-01-13T13:06:02.632Z,100003.88
2023-01-13T13:08:45.740Z,100007.41
2023-01-13T13:11:59.679Z,100018.34
2023-01-13T13:15:03.812Z,100025.22
2023-01-13T13:17:59.556Z,100022.81
2023-01-13T13:20:57.439Z,100023.66
2023-01-13T13:23:48.352Z,100019.94
2023-01-13T13:26:38.542Z,100027.28
2023-01-13T13:29:49.508Z,100048.06
2023-01-13T13:32:55.882Z,100059.66
2023-01-13T13:35:43.352Z,100080.84
2023-01-13T13:38:42.862Z,100074.19
2023-01-13T13:41:35.801Z,100074.28
2023-01-13T13:44:29.646Z,100080.97
2023-01-13T13:47:03.013Z,100081.81
2023-01-13T13:49:41.354Z,100077.72
2023-01-13T13:52:19.255Z,100077.47
2023-01-13T13:54:51.987Z,100089.69
2023-01-13T13:57:22.577Z,100096.56
2023-01-13T13:59:56.235Z,100104.66
2023-01-13T14:02:30.423Z,100112.25
2023-01-13T14:05:16.853Z,100116.38
2023-01-13T14:07:45.541Z,100110.09
2023-01-13T14:10:19.145Z,100108.16
2023-01-13T14:12:47.169Z,100102.25
2023-01-13T14:15:32.244Z,100106.22
2023-01-13T14:18:04.804Z,100099.94
2023-01-13T14:20:34.518Z,100105.00
2023-01-13T14:23:05.478Z,100109.59
2023-01-13T14:25:36.698Z,100096.56
2023-01-13T14:28:18.356Z,100107.81
2023-01-13T14:30:46.484Z,100089.81
2023-01-13T14:33:19.241Z,100107.66
2023-01-13T14:36:07.107Z,100097.41
2023-01-13T14:38:35.057Z,100097.28
2023-01-13T14:41:12.002Z,100096.22
2023-01-13T14:43:45.590Z,100099.00
2023-01-13T14:46:14.902Z,100116.25
2023-01-13T14:48:48.280Z,100115.75
2023-01-13T14:51:24.754Z,100113.72
2023-01-13T14:53:53.238Z,100116.72
2023-01-13T14:56:53.833Z,100125.44
2023-01-13T14:59:44.490Z,100140.03
2023-01-13T15:02:38.805Z,100136.44
2023-01-13T15:05:39.521Z,100147.19
2023-01-13T15:08:40.377Z,100153.22
2023-01-13T15:11:20.273Z,100155.53
2023-01-13T15:13:53.917Z,100157.91
2023-01-13T15:16:24.971Z,100176.63
2023-01-13T15:18:52.993Z,100171.47
2023-01-13T15:21:21.209Z,100170.25
2023-01-13T15:23:50.987Z,100183.78
2023-01-13T15:26:23.052Z,100185.19
2023-01-13T15:28:52.011Z,100184.09
2023-01-13T15:31:21.260Z,100190.72
2023-01-13T15:33:50.013Z,100194.59
2023-01-13T15:36:24.691Z,100197.72
2023-01-13T15:38:54.140Z,100190.94
2023-01-13T15:41:42.816Z,100189.59
2023-01-13T15:44:30.172Z,100194.59
2023-01-13T15:46:59.919Z,100198.66
2023-01-13T15:49:34.941Z,100217.59
2023-01-13T15:52:04.192Z,100221.19
2023-01-13T15:54:33.394Z,100226.03
2023-01-13T15:57:01.995Z,100230.50
2023-01-13T15:59:30.487Z,100242.84
2023-01-13T16:01:58.548Z,100231.97
2023-01-13T16:04:26.628Z,100237.66
2023-01-13T16:06:55.641Z,100245.59
2023-01-13T16:09:23.864Z,100244.03
2023-01-13T16:11:53.392Z,100269.50
2023-01-13T16:14:22.085Z,100274.19
2023-01-13T16:16:51.949Z,100302.22
2023-01-13T16:19:19.760Z,100289.91
2023-01-13T16:21:47.511Z,100294.03
2023-01-13T16:24:15.265Z,100315.78
2023-01-13T16:26:42.997Z,100314.53
2023-01-13T16:29:12.937Z,100317.66
2023-01-13T16:31:40.915Z,100328.94
2023-01-13T16:34:08.669Z,100319.25
2023-01-13T16:36:37.415Z,100327.34
2023-01-13T16:39:06.508Z,100328.03
2023-01-13T16:41:35.555Z,100324.06
2023-01-13T16:44:06.034Z,100327.91
2023-01-13T16:46:35.605Z,100333.00
2023-01-13T16:49:05.199Z,100337.91
2023-01-13T16:51:33.566Z,100340.03
2023-01-13T16:54:01.376Z,100341.66
2023-01-13T16:56:30.902Z,100355.00
2023-01-13T16:58:59.995Z,100365.00
2023-01-13T17:01:30.071Z,100367.03
2023-01-13T17:04:00.164Z,100376.69
2023-01-13T17:06:33.398Z,100365.41
2023-01-13T17:09:02.043Z,100366.41
2023-01-13T17:11:29.947Z,100372.94
2023-01-13T17:13:57.992Z,100373.28
2023-01-13T17:16:26.263Z,100365.53
2023-01-13T17:18:54.618Z,100371.69
2023-01-13T17:21:23.729Z,100375.19
2023-01-13T17:23:51.663Z,100376.69
2023-01-13T17:26:32.090Z,100368.84
2023-01-13T17:29:01.296Z,100369.69
2023-01-13T17:31:29.521Z,100389.22
2023-01-13T17:33:57.726Z,100376.91
2023-01-13T17:36:26.802Z,100390.16
2023-01-13T17:38:55.795Z,100395.25
2023-01-13T17:41:23.750Z,100393.03
2023-01-13T17:43:51.578Z,100381.69
2023-01-13T17:46:19.925Z,100389.84
2023-01-13T17:48:48.372Z,100392.28
2023-01-13T17:51:18.642Z,100392.16
2023-01-13T17:53:47.945Z,100402.25
2023-01-13T17:56:16.886Z,100403.41
2023-01-13T17:58:46.801Z,100420.91
2023-01-13T18:01:16.629Z,100421.44
2023-01-13T18:03:44.552Z,100421.34
2023-01-13T18:06:16.342Z,100421.44
2023-01-13T18:08:44.178Z,100431.94
2023-01-13T18:11:13.852Z,100434.03
2023-01-13T18:13:42.851Z,100418.69
2023-01-13T18:16:12.178Z,100432.47
2023-01-13T18:18:41.857Z,100437.56
2023-01-13T18:21:36.039Z,100441.28
2023-01-13T18:24:21.100Z,100441.16
2023-01-13T18:27:07.804Z,100450.94
2023-01-13T18:29:35.765Z,100454.41
2023-01-13T18:32:03.524Z,100458.88
2023-01-13T18:34:31.328Z,100469.94
2023-01-13T18:36:59.064Z,100466.31
2023-01-13T18:39:26.947Z,100472.59
2023-01-13T18:42:13.769Z,100470.88
2023-01-13T18:44:41.584Z,100475.53
2023-01-13T18:47:09.952Z,100478.19
2023-01-13T18:49:37.727Z,100486.97
2023-01-13T18:52:06.089Z,100483.41
2023-01-13T18:54:34.001Z,100494.94
2023-01-13T18:57:03.144Z,100499.00
2023-01-13T18:59:33.136Z,100509.16
2023-01-13T19:02:00.996Z,100517.03
2023-01-13T19:04:28.794Z,100503.78
2023-01-13T19:07:00.877Z,100510.00
2023-01-13T19:09:29.646Z,100523.59
2023-01-13T19:11:58.943Z,100518.28
2023-01-13T19:14:38.236Z,100513.16
2023-01-13T19:17:09.750Z,100522.09
2023-01-13T19:19:42.281Z,100537.69
2023-01-13T19:22:10.913Z,100539.69
2023-01-13T19:24:41.851Z,100548.59
2023-01-13T19:27:09.755Z,100550.84
2023-01-13T19:29:43.277Z,100551.91
2023-01-13T19:32:20.529Z,100548.19
2023-01-13T19:34:49.398Z,100550.84
2023-01-13T19:37:17.215Z,100553.50
2023-01-13T19:39:45.090Z,100553.50
2023-01-13T19:42:31.123Z,100564.97
2023-01-13T19:45:18.260Z,100569.31
2023-01-13T19:47:47.048Z,100578.13
2023-01-13T19:50:15.364Z,100582.59
2023-01-13T19:52:43.508Z,100594.88
2023-01-13T19:55:12.427Z,100598.19
2023-01-13T19:57:40.674Z,100600.84
2023-01-13T20:00:11.749Z,100596.50
2023-01-13T20:02:44.883Z,100594.88
2023-01-13T20:05:17.905Z,100604.72
2023-01-13T20:07:45.811Z,100607.09
2023-01-13T20:10:13.823Z,100609.94
2023-01-13T20:12:42.669Z,100614.41
2023-01-13T20:15:12.590Z,100600.09
2023-01-13T20:17:41.468Z,100608.78
2023-01-13T20:20:11.369Z,100606.13
2023-01-13T20:22:39.832Z,100612.41
2023-01-13T20:25:08.147Z,100618.75
2023-01-13T20:27:36.454Z,100611.63
2023-01-13T20:30:04.660Z,100614.41
2023-01-13T20:32:33.791Z,100606.22
2023-01-13T20:35:01.533Z,100613.25
2023-01-13T20:37:29.383Z,100618.97
2023-01-13T20:39:58.099Z,100617.25
2023-01-13T20:42:31.831Z,100602.47
2023-01-13T20:45:01.059Z,100606.59
2023-01-13T20:47:30.085Z,100607.63
2023-01-13T20:49:59.810Z,100625.81
2023-01-13T20:52:27.669Z,100630.59
2023-01-13T20:54:55.393Z,100623.78
2023-01-13T20:57:23.379Z,100643.09
2023-01-13T20:59:51.152Z,100632.94
2023-01-13T21:02:20.240Z,100639.38
2023-01-13T21:04:48.103Z,100620.91
2023-01-13T21:07:17.266Z,100627.63
2023-01-13T21:09:45.055Z,100627.44
2023-01-13T21:12:33.079Z,100625.56
2023-01-13T21:15:19.998Z,100632.44
2023-01-13T21:18:06.951Z,100635.09
2023-01-13T21:20:35.441Z,100635.19
2023-01-13T21:23:05.907Z,100635.28
2023-01-13T21:25:35.501Z,100650.56
2023-01-13T21:28:07.551Z,100649.41
2023-01-13T21:30:36.186Z,100646.75
2023-01-13T21:33:06.110Z,100655.66
2023-01-13T21:35:33.940Z,100650.16
2023-01-13T21:38:01.736Z,100644.84
2023-01-13T21:40:30.833Z,100647.28
2023-01-13T21:43:16.031Z,100665.94
2023-01-13T21:46:01.040Z,100683.19
2023-01-13T21:48:28.847Z,100682.13
2023-01-13T21:51:01.177Z,100682.44
2023-01-13T21:53:28.970Z,100684.03
2023-01-13T21:55:58.182Z,100686.78
2023-01-13T21:58:26.065Z,100676.06
2023-01-13T22:00:54.248Z,100684.03
2023-01-13T22:03:22.030Z,100684.69
2023-01-13T22:05:54.902Z,100695.94
2023-01-13T22:08:22.615Z,100699.53
2023-01-13T22:10:58.515Z,100691.41
2023-01-13T22:13:47.636Z,100684.38
2023-01-13T22:16:16.035Z,100679.84
2023-01-13T22:18:43.944Z,100673.69
2023-01-13T22:21:11.960Z,100678.16
2023-01-13T22:23:39.794Z,100685.34
2023-01-13T22:26:08.934Z,100676.34
2023-01-13T22:28:42.845Z,100685.34
2023-01-13T22:31:10.993Z,100691.72
2023-01-13T22:33:39.500Z,100693.38
2023-01-13T22:36:08.583Z,100709.09
2023-01-13T22:38:36.802Z,100715.63
2023-01-13T22:41:07.196Z,100707.00
2023-01-13T22:43:35.989Z,100710.06
2023-01-13T22:46:07.363Z,100715.56
2023-01-13T22:48:35.903Z,100712.63
2023-01-13T22:51:08.246Z,100725.88
2023-01-13T22:53:37.060Z,100715.56
2023-01-13T22:56:05.490Z,100717.06
2023-01-13T22:58:33.578Z,100719.25
2023-01-13T23:01:11.197Z,100711.66
2023-01-13T23:03:39.253Z,100718.59
2023-01-13T23:06:07.493Z,100722.25
2023-01-13T23:08:36.517Z,100717.91
2023-01-13T23:11:05.333Z,100718.22
2023-01-13T23:13:33.419Z,100721.72
2023-01-13T23:16:03.849Z,100715.66
2023-01-13T23:18:33.586Z,100716.31
2023-01-13T23:21:05.231Z,100720.59
2023-01-13T23:23:34.223Z,100718.69
2023-01-13T23:26:02.311Z,100713.66
2023-01-13T23:28:30.567Z,100713.78
2023-01-13T23:30:58.530Z,100723.81
2023-01-13T23:33:26.802Z,100729.13
2023-01-13T23:36:00.804Z,100732.06
2023-01-13T23:38:29.308Z,100727.88
2023-01-13T23:40:57.589Z,100730.31
2023-01-13T23:43:26.779Z,100731.19
2023-01-13T23:46:01.794Z,100726.28
2023-01-13T23:48:29.648Z,100736.78
2023-01-13T23:50:59.828Z,100730.72
2023-01-13T23:53:33.337Z,100724.78
2023-01-13T23:56:01.692Z,100724.03
2023-01-13T23:58:30.048Z,100721.38
